createdAt,value
2022-08-04T00:02:22.018Z,100552.19
2022-08-04T00:05:03.504Z,100547.50
2022-08-04T00:07:44.017Z,100552.88
2022-08-04T00:10:13.869Z,100544.38
2022-08-04T00:12:43.637Z,100548.28
2022-08-04T00:15:15.004Z,100545.22
2022-08-04T00:18:04.641Z,100552.94
2022-08-04T00:20:32.755Z,100545.13
2022-08-04T00:23:00.380Z,100550.91
2022-08-04T00:25:27.441Z,100545.84
2022-08-04T00:27:54.694Z,100545.81
2022-08-04T00:30:21.541Z,100544.44
2022-08-04T00:32:48.569Z,100547.25
2022-08-04T00:35:15.585Z,100543.84
2022-08-04T00:37:44.656Z,100536.09
2022-08-04T00:40:34.499Z,100529.69
2022-08-04T00:43:10.208Z,100524.44
2022-08-04T00:46:15.647Z,100541.38
2022-08-04T00:48:47.778Z,100533.38
2022-08-04T00:51:23.828Z,100533.63
2022-08-04T00:53:55.633Z,100528.78
2022-08-04T00:56:28.030Z,100532.56
2022-08-04T00:58:54.605Z,100527.28
2022-08-04T01:01:44.194Z,100528.03
2022-08-04T01:04:16.015Z,100526.91
2022-08-04T01:07:01.259Z,100520.22
2022-08-04T01:09:50.978Z,100510.00
2022-08-04T01:12:17.535Z,100513.88
2022-08-04T01:15:02.973Z,100521.41
2022-08-04T01:17:35.723Z,100515.75
2022-08-04T01:20:09.498Z,100514.09
2022-08-04T01:23:14.662Z,100508.59
2022-08-04T01:25:53.392Z,100505.72
2022-08-04T01:28:22.815Z,100504.59
2022-08-04T01:30:56.299Z,100502.06
2022-08-04T01:33:23.446Z,100503.31
2022-08-04T01:35:56.225Z,100507.91
2022-08-04T01:38:22.874Z,100512.81
2022-08-04T01:40:52.954Z,100503.75
2022-08-04T01:43:20.349Z,100502.06
2022-08-04T01:45:51.011Z,100497.44
2022-08-04T01:48:23.940Z,100500.72
2022-08-04T01:50:52.807Z,100505.53
2022-08-04T01:53:20.606Z,100503.75
2022-08-04T01:55:54.139Z,100502.63
2022-08-04T01:58:23.550Z,100504.59
2022-08-04T02:01:04.796Z,100505.38
2022-08-04T02:04:20.426Z,100509.97
2022-08-04T02:06:22.087Z,100507.63
2022-08-04T02:08:54.202Z,100511.00
2022-08-04T02:11:22.083Z,100514.78
2022-08-04T02:13:48.650Z,100512.97
2022-08-04T02:16:34.034Z,100508.63
2022-08-04T02:19:00.546Z,100506.84
2022-08-04T02:21:27.750Z,100510.91
2022-08-04T02:24:12.067Z,100509.41
2022-08-04T02:26:41.576Z,100514.41
2022-08-04T02:29:19.473Z,100509.78
2022-08-04T02:31:52.423Z,100514.97
2022-08-04T02:34:25.101Z,100513.59
2022-08-04T02:36:52.660Z,100512.22
2022-08-04T02:39:20.320Z,100506.59
2022-08-04T02:41:47.850Z,100497.44
2022-08-04T02:44:14.968Z,100494.50
2022-08-04T02:46:41.794Z,100495.38
2022-08-04T02:49:10.122Z,100492.44
2022-08-04T02:51:39.684Z,100506.03
2022-08-04T02:54:07.015Z,100509.50
2022-08-04T02:56:34.677Z,100504.41
2022-08-04T02:59:05.517Z,100502.06
2022-08-04T03:01:32.501Z,100514.13
2022-08-04T03:04:18.263Z,100517.50
2022-08-04T03:07:14.293Z,100506.28
2022-08-04T03:10:04.297Z,100514.97
2022-08-04T03:12:39.927Z,100509.41
2022-08-04T03:15:06.517Z,100510.25
2022-08-04T03:17:52.408Z,100513.16
2022-08-04T03:20:41.628Z,100515.03
2022-08-04T03:23:20.308Z,100521.38
2022-08-04T03:26:01.679Z,100516.50
2022-08-04T03:28:31.395Z,100519.97
2022-08-04T03:30:57.990Z,100516.50
2022-08-04T03:33:24.530Z,100519.56
2022-08-04T03:35:54.108Z,100523.81
2022-08-04T03:38:39.444Z,100519.44
2022-08-04T03:41:57.300Z,100522.66
2022-08-04T03:44:27.974Z,100521.69
2022-08-04T03:47:14.803Z,100519.84
2022-08-04T03:49:41.389Z,100516.91
2022-08-04T03:52:36.745Z,100520.66
2022-08-04T03:55:03.298Z,100524.28
2022-08-04T03:57:29.851Z,100524.09
2022-08-04T04:00:02.565Z,100523.56
2022-08-04T04:02:29.193Z,100523.78
2022-08-04T04:05:02.090Z,100525.34
2022-08-04T04:07:35.904Z,100528.44
2022-08-04T04:10:09.048Z,100526.28
2022-08-04T04:12:44.940Z,100526.22
2022-08-04T04:15:21.091Z,100530.69
2022-08-04T04:17:47.694Z,100531.06
2022-08-04T04:20:25.520Z,100530.22
2022-08-04T04:23:11.055Z,100539.00
2022-08-04T04:25:42.345Z,100531.34
2022-08-04T04:28:45.461Z,100533.34
2022-08-04T04:31:13.874Z,100535.69
2022-08-04T04:34:03.403Z,100542.56
2022-08-04T04:36:36.368Z,100539.91
2022-08-04T04:39:21.682Z,100549.72
2022-08-04T04:41:56.048Z,100546.34
2022-08-04T04:44:30.690Z,100547.50
2022-08-04T04:47:16.261Z,100546.44
2022-08-04T04:49:45.837Z,100548.97
2022-08-04T04:52:24.259Z,100552.44
2022-08-04T04:55:10.402Z,100554.81
2022-08-04T04:57:54.348Z,100550.09
2022-08-04T05:00:23.562Z,100544.50
2022-08-04T05:03:09.226Z,100541.06
2022-08-04T05:05:54.950Z,100539.72
2022-08-04T05:08:43.108Z,100544.56
2022-08-04T05:11:26.301Z,100540.78
2022-08-04T05:14:36.505Z,100541.19
2022-08-04T05:16:43.924Z,100544.91
2022-08-04T05:19:40.229Z,100543.66
2022-08-04T05:22:14.209Z,100549.41
2022-08-04T05:24:43.302Z,100548.47
2022-08-04T05:27:16.615Z,100547.00
2022-08-04T05:29:47.198Z,100558.84
2022-08-04T05:32:16.363Z,100557.81
2022-08-04T05:34:45.347Z,100555.25
2022-08-04T05:37:15.430Z,100558.50
2022-08-04T05:39:44.475Z,100562.44
2022-08-04T05:42:14.698Z,100558.81
2022-08-04T05:44:45.346Z,100554.59
2022-08-04T05:47:16.228Z,100555.41
2022-08-04T05:49:43.481Z,100553.75
2022-08-04T05:52:10.698Z,100557.81
2022-08-04T05:54:38.878Z,100560.81
2022-08-04T05:57:06.014Z,100558.25
2022-08-04T05:59:34.598Z,100560.88
2022-08-04T06:02:02.683Z,100560.72
2022-08-04T06:04:35.004Z,100571.00
2022-08-04T06:07:01.815Z,100574.41
2022-08-04T06:09:28.582Z,100582.13
2022-08-04T06:12:03.617Z,100583.94
2022-08-04T06:14:38.352Z,100584.56
2022-08-04T06:18:32.834Z,100593.72
2022-08-04T06:19:59.255Z,100586.13
2022-08-04T06:22:33.587Z,100590.22
2022-08-04T06:25:01.054Z,100596.44
2022-08-04T06:27:29.343Z,100592.66
2022-08-04T06:29:57.426Z,100595.31
2022-08-04T06:32:53.384Z,100595.16
2022-08-04T06:35:31.544Z,100591.19
2022-08-04T06:38:01.128Z,100591.94
2022-08-04T06:40:32.902Z,100595.44
2022-08-04T06:43:07.410Z,100589.22
2022-08-04T06:45:35.930Z,100587.41
2022-08-04T06:48:03.771Z,100589.69
2022-08-04T06:51:30.617Z,100597.56
2022-08-04T06:53:18.919Z,100597.94
2022-08-04T06:55:46.585Z,100604.06
2022-08-04T06:58:17.541Z,100598.44
2022-08-04T07:00:45.983Z,100595.41
2022-08-04T07:03:13.715Z,100599.84
2022-08-04T07:05:40.808Z,100607.38
2022-08-04T07:08:08.157Z,100610.69
2022-08-04T07:10:34.927Z,100613.88
2022-08-04T07:13:03.236Z,100604.59
2022-08-04T07:15:30.318Z,100600.44
2022-08-04T07:18:00.476Z,100599.13
2022-08-04T07:20:34.102Z,100597.53
2022-08-04T07:23:12.968Z,100595.56
2022-08-04T07:25:58.505Z,100605.19
2022-08-04T07:28:29.582Z,100613.69
2022-08-04T07:30:58.820Z,100619.16
2022-08-04T07:33:26.236Z,100613.41
2022-08-04T07:36:05.327Z,100624.88
2022-08-04T07:38:37.418Z,100624.34
2022-08-04T07:41:35.369Z,100616.13
2022-08-04T07:43:53.231Z,100620.09
2022-08-04T07:46:19.923Z,100609.53
2022-08-04T07:48:46.733Z,100611.00
2022-08-04T07:51:13.598Z,100609.72
2022-08-04T07:53:54.009Z,100614.66
2022-08-04T07:56:25.376Z,100627.97
2022-08-04T07:59:03.363Z,100628.06
2022-08-04T08:01:55.129Z,100636.47
2022-08-04T08:04:23.856Z,100635.59
2022-08-04T08:06:51.342Z,100624.91
2022-08-04T08:09:18.918Z,100645.16
2022-08-04T08:12:38.495Z,100648.97
2022-08-04T08:14:36.726Z,100644.88
2022-08-04T08:17:06.268Z,100647.78
2022-08-04T08:19:36.837Z,100653.03
2022-08-04T08:22:20.160Z,100652.31
2022-08-04T08:24:46.897Z,100653.53
2022-08-04T08:27:14.023Z,100656.56
2022-08-04T08:29:41.332Z,100662.47
2022-08-04T08:32:13.279Z,100662.47
2022-08-04T08:34:41.093Z,100664.25
2022-08-04T08:37:13.744Z,100661.06
2022-08-04T08:40:00.799Z,100655.56
2022-08-04T08:42:42.686Z,100672.22
2022-08-04T08:45:35.172Z,100670.25
2022-08-04T08:48:20.831Z,100674.84
2022-08-04T08:50:54.840Z,100677.25
2022-08-04T08:53:30.526Z,100685.41
2022-08-04T08:56:05.968Z,100688.19
2022-08-04T08:58:38.633Z,100688.44
2022-08-04T09:01:23.978Z,100699.50
2022-08-04T09:03:53.465Z,100699.59
2022-08-04T09:06:42.153Z,100688.63
2022-08-04T09:09:08.944Z,100697.88
2022-08-04T09:11:58.921Z,100699.31
2022-08-04T09:14:29.296Z,100704.78
2022-08-04T09:17:00.744Z,100686.41
2022-08-04T09:19:38.756Z,100697.34
2022-08-04T09:22:12.506Z,100699.22
2022-08-04T09:24:39.427Z,100693.88
2022-08-04T09:27:11.424Z,100689.53
2022-08-04T09:29:49.980Z,100690.63
2022-08-04T09:32:35.372Z,100695.28
2022-08-04T09:35:15.371Z,100700.00
2022-08-04T09:37:45.584Z,100686.47
2022-08-04T09:40:55.310Z,100693.34
2022-08-04T09:43:28.062Z,100698.38
2022-08-04T09:46:20.267Z,100698.59
2022-08-04T09:48:46.807Z,100698.94
2022-08-04T09:51:57.667Z,100697.94
2022-08-04T09:54:38.620Z,100700.28
2022-08-04T09:57:11.363Z,100691.88
2022-08-04T09:59:41.010Z,100693.09
2022-08-04T10:02:09.373Z,100691.16
2022-08-04T10:04:36.768Z,100697.09
2022-08-04T10:07:22.282Z,100692.31
2022-08-04T10:10:01.307Z,100700.84
2022-08-04T10:12:33.966Z,100705.22
2022-08-04T10:15:03.961Z,100703.28
2022-08-04T10:17:30.469Z,100708.72
2022-08-04T10:20:04.610Z,100709.72
2022-08-04T10:22:44.794Z,100704.81
2022-08-04T10:26:02.888Z,100707.53
2022-08-04T10:28:12.560Z,100715.78
2022-08-04T10:30:40.893Z,100710.69
2022-08-04T10:33:26.288Z,100712.97
2022-08-04T10:36:01.572Z,100715.44
2022-08-04T10:38:31.247Z,100720.34
2022-08-04T10:41:11.468Z,100724.00
2022-08-04T10:43:56.927Z,100729.03
2022-08-04T10:46:27.265Z,100727.13
2022-08-04T10:48:59.152Z,100727.81
2022-08-04T10:51:57.364Z,100731.97
2022-08-04T10:54:31.947Z,100729.78
2022-08-04T10:57:01.463Z,100736.31
2022-08-04T10:59:31.051Z,100735.59
2022-08-04T11:02:04.716Z,100739.72
2022-08-04T11:04:53.422Z,100745.63
2022-08-04T11:07:21.655Z,100749.00
2022-08-04T11:09:48.710Z,100744.31
2022-08-04T11:12:25.619Z,100743.84
2022-08-04T11:14:52.203Z,100736.25
2022-08-04T11:17:33.686Z,100742.00
2022-08-04T11:20:34.598Z,100745.63
2022-08-04T11:23:12.163Z,100741.53
2022-08-04T11:25:52.151Z,100744.81
2022-08-04T11:28:18.965Z,100746.50
2022-08-04T11:30:54.055Z,100740.47
2022-08-04T11:33:29.776Z,100740.13
2022-08-04T11:36:16.571Z,100740.94
2022-08-04T11:39:01.941Z,100742.63
2022-08-04T11:41:39.212Z,100750.31
2022-08-04T11:44:12.271Z,100760.19
2022-08-04T11:46:44.265Z,100778.88
2022-08-04T11:49:15.312Z,100779.25
2022-08-04T11:51:44.050Z,100788.28
2022-08-04T11:54:12.130Z,100790.56
2022-08-04T11:56:38.759Z,100797.06
2022-08-04T11:59:07.735Z,100795.66
2022-08-04T12:01:46.561Z,100799.84
2022-08-04T12:04:13.255Z,100797.19
2022-08-04T12:06:56.685Z,100793.25
2022-08-04T12:09:36.290Z,100794.09
2022-08-04T12:12:13.888Z,100784.34
2022-08-04T12:14:40.437Z,100794.59
2022-08-04T12:17:07.400Z,100788.38
2022-08-04T12:20:04.180Z,100779.03
2022-08-04T12:22:40.675Z,100796.09
2022-08-04T12:25:09.761Z,100798.28
2022-08-04T12:27:40.057Z,100797.75
2022-08-04T12:30:58.527Z,100801.28
2022-08-04T12:33:04.349Z,100806.34
2022-08-04T12:35:30.906Z,100803.19
2022-08-04T12:38:02.945Z,100806.47
2022-08-04T12:40:38.866Z,100813.84
2022-08-04T12:43:20.474Z,100807.81
2022-08-04T12:45:49.973Z,100817.59
2022-08-04T12:48:21.074Z,100813.97
2022-08-04T12:50:50.172Z,100817.69
2022-08-04T12:53:19.500Z,100814.94
2022-08-04T12:56:01.805Z,100816.75
2022-08-04T12:58:42.153Z,100812.75
2022-08-04T13:02:08.382Z,100820.63
2022-08-04T13:04:15.586Z,100814.84
2022-08-04T13:06:43.412Z,100828.03
2022-08-04T13:09:17.553Z,100831.03
2022-08-04T13:11:50.706Z,100833.47
2022-08-04T13:14:27.231Z,100830.47
2022-08-04T13:16:59.267Z,100842.03
2022-08-04T13:19:26.767Z,100838.06
2022-08-04T13:22:02.674Z,100831.88
2022-08-04T13:24:33.019Z,100838.56
2022-08-04T13:27:09.155Z,100839.75
2022-08-04T13:29:59.371Z,100840.91
2022-08-04T13:32:31.356Z,100835.19
2022-08-04T13:35:00.157Z,100832.50
2022-08-04T13:37:36.149Z,100839.03
2022-08-04T13:40:07.327Z,100848.28
2022-08-04T13:42:35.827Z,100850.84
2022-08-04T13:45:06.093Z,100852.38
2022-08-04T13:47:35.030Z,100853.31
2022-08-04T13:50:20.482Z,100853.03
2022-08-04T13:52:47.780Z,100856.28
2022-08-04T13:55:22.274Z,100863.94
2022-08-04T13:57:50.739Z,100860.13
2022-08-04T14:00:29.258Z,100861.41
2022-08-04T14:03:02.064Z,100866.13
2022-08-04T14:05:35.101Z,100851.38
2022-08-04T14:08:20.275Z,100855.31
2022-08-04T14:10:54.715Z,100862.44
2022-08-04T14:13:41.777Z,100862.78
2022-08-04T14:16:16.488Z,100857.19
2022-08-04T14:18:45.314Z,100859.06
2022-08-04T14:21:13.410Z,100858.34
2022-08-04T14:23:54.215Z,100868.41
2022-08-04T14:26:32.588Z,100870.31
2022-08-04T14:29:27.553Z,100873.81
2022-08-04T14:32:03.225Z,100873.72
2022-08-04T14:34:38.527Z,100873.88
2022-08-04T14:37:17.163Z,100878.22
2022-08-04T14:40:18.065Z,100888.88
2022-08-04T14:42:53.981Z,100886.69
2022-08-04T14:45:54.809Z,100896.97
2022-08-04T14:48:22.642Z,100904.50
2022-08-04T14:50:50.256Z,100919.16
2022-08-04T14:53:33.695Z,100913.66
2022-08-04T14:56:01.221Z,100911.66
2022-08-04T14:58:34.927Z,100917.00
2022-08-04T15:01:10.867Z,100920.03
2022-08-04T15:03:48.235Z,100922.00
2022-08-04T15:06:21.922Z,100924.44
2022-08-04T15:08:50.095Z,100922.94
2022-08-04T15:11:23.428Z,100929.97
2022-08-04T15:13:51.172Z,100934.50
2022-08-04T15:16:17.890Z,100932.31
2022-08-04T15:18:49.212Z,100936.63
2022-08-04T15:21:16.889Z,100945.41
2022-08-04T15:26:33.015Z,100939.56
2022-08-04T15:29:11.935Z,100944.28
2022-08-04T15:32:05.474Z,100942.19
2022-08-04T15:34:29.004Z,100951.06
2022-08-04T15:36:58.093Z,100945.47
2022-08-04T15:39:36.152Z,100937.16
2022-08-04T15:42:21.014Z,100943.06
2022-08-04T15:44:51.493Z,100948.75
2022-08-04T15:47:18.268Z,100950.09
2022-08-04T15:49:45.481Z,100954.91
2022-08-04T15:52:13.543Z,100956.22
2022-08-04T15:54:42.431Z,100955.97
2022-08-04T15:57:38.764Z,100963.22
2022-08-04T16:00:09.954Z,100962.94
2022-08-04T16:02:43.149Z,100964.84
2022-08-04T16:05:18.062Z,100969.03
2022-08-04T16:08:08.350Z,100967.84
2022-08-04T16:10:35.623Z,100969.00
2022-08-04T16:13:10.351Z,100974.22
2022-08-04T16:15:36.882Z,100976.03
2022-08-04T16:18:03.600Z,100976.78
2022-08-04T16:20:30.534Z,100982.41
2022-08-04T16:22:59.222Z,100974.19
2022-08-04T16:25:46.443Z,100981.94
2022-08-04T16:28:51.811Z,100972.94
2022-08-04T16:31:18.473Z,100977.72
2022-08-04T16:33:46.692Z,100973.53
2022-08-04T16:36:16.767Z,100980.31
2022-08-04T16:39:04.744Z,100977.41
2022-08-04T16:41:41.612Z,100975.84
2022-08-04T16:44:51.573Z,100977.81
2022-08-04T16:47:22.482Z,100985.75
2022-08-04T16:50:01.474Z,100988.66
2022-08-04T16:52:28.337Z,100996.53
2022-08-04T16:54:58.787Z,100995.97
2022-08-04T16:57:25.403Z,100998.34
2022-08-04T16:59:52.431Z,100995.28
2022-08-04T17:02:24.267Z,100993.59
2022-08-04T17:05:07.391Z,100990.97
2022-08-04T17:08:19.559Z,100987.78
2022-08-04T17:10:41.552Z,100990.19
2022-08-04T17:14:03.926Z,100992.00
2022-08-04T17:16:18.053Z,100998.22
2022-08-04T17:18:49.696Z,100996.16
2022-08-04T17:21:22.412Z,101004.47
2022-08-04T17:24:14.514Z,100999.72
2022-08-04T17:26:41.774Z,100995.19
2022-08-04T17:29:11.834Z,100991.06
2022-08-04T17:31:40.551Z,100983.75
2022-08-04T17:34:16.546Z,100990.28
2022-08-04T17:36:46.066Z,100990.97
2022-08-04T17:39:21.770Z,100987.03
2022-08-04T17:41:49.570Z,100985.53
2022-08-04T17:44:16.826Z,100983.91
2022-08-04T17:46:49.202Z,100988.41
2022-08-04T17:49:18.629Z,100994.88
2022-08-04T17:52:06.373Z,100993.69
2022-08-04T17:54:38.955Z,100993.66
2022-08-04T17:57:15.372Z,100996.84
2022-08-04T17:59:57.070Z,100998.78
2022-08-04T18:02:33.321Z,101000.19
2022-08-04T18:05:07.925Z,101001.91
2022-08-04T18:08:46.019Z,101012.78
2022-08-04T18:10:44.636Z,101017.22
2022-08-04T18:13:22.290Z,101018.78
2022-08-04T18:15:51.279Z,101021.03
2022-08-04T18:18:20.820Z,101024.13
2022-08-04T18:20:50.015Z,101019.38
2022-08-04T18:23:17.047Z,101029.47
2022-08-04T18:25:51.149Z,101025.56
2022-08-04T18:28:22.729Z,101019.81
2022-08-04T18:30:54.773Z,101031.72
2022-08-04T18:33:40.125Z,101034.97
2022-08-04T18:36:33.283Z,101040.25
2022-08-04T18:38:55.436Z,101039.88
2022-08-04T18:41:24.777Z,101036.28
2022-08-04T18:43:55.906Z,101038.63
2022-08-04T18:46:26.910Z,101036.53
2022-08-04T18:48:54.296Z,101038.91
2022-08-04T18:51:30.681Z,101050.84
2022-08-04T18:53:59.061Z,101049.88
2022-08-04T18:56:32.544Z,101048.28
2022-08-04T18:59:01.140Z,101049.06
2022-08-04T19:01:29.916Z,101058.22
2022-08-04T19:03:57.776Z,101062.19
2022-08-04T19:06:43.908Z,101060.88
2022-08-04T19:09:16.463Z,101067.22
2022-08-04T19:11:54.734Z,101074.47
2022-08-04T19:14:22.352Z,101083.06
2022-08-04T19:16:49.315Z,101080.34
2022-08-04T19:19:17.414Z,101077.41
2022-08-04T19:22:00.182Z,101093.44
2022-08-04T19:24:34.553Z,101091.22
2022-08-04T19:27:07.587Z,101092.47
2022-08-04T19:29:37.468Z,101100.53
2022-08-04T19:32:14.109Z,101107.13
2022-08-04T19:34:45.703Z,101104.91
2022-08-04T19:37:16.569Z,101108.66
2022-08-04T19:39:46.926Z,101111.09
2022-08-04T19:42:14.607Z,101108.19
2022-08-04T19:44:44.523Z,101116.66
2022-08-04T19:48:18.249Z,101113.41
2022-08-04T19:50:04.483Z,101112.94
2022-08-04T19:52:36.817Z,101122.81
2022-08-04T19:57:52.413Z,101124.28
2022-08-04T20:03:11.371Z,101130.25
2022-08-04T20:05:54.810Z,101126.94
2022-08-04T20:08:24.088Z,101133.31
2022-08-04T20:10:52.024Z,101135.63
2022-08-04T20:13:19.623Z,101135.09
2022-08-04T20:15:57.309Z,101145.00
2022-08-04T20:18:34.873Z,101141.75
2022-08-04T20:21:03.813Z,101143.72
2022-08-04T20:23:48.324Z,101145.59
2022-08-04T20:26:16.766Z,101151.38
2022-08-04T20:28:45.791Z,101156.47
2022-08-04T20:31:18.353Z,101153.84
2022-08-04T20:33:49.245Z,101155.78
2022-08-04T20:36:20.226Z,101162.06
2022-08-04T20:38:52.027Z,101162.91
2022-08-04T20:41:19.729Z,101165.38
2022-08-04T20:43:46.598Z,101165.91
2022-08-04T20:46:18.538Z,101172.88
2022-08-04T20:48:55.472Z,101164.97
2022-08-04T20:51:25.899Z,101162.22
2022-08-04T20:54:00.294Z,101163.97
2022-08-04T20:56:30.774Z,101165.28
2022-08-04T20:58:58.751Z,101180.50
2022-08-04T21:04:30.772Z,101185.03
2022-08-04T21:06:58.500Z,101194.66
2022-08-04T21:09:38.077Z,101198.13
2022-08-04T21:12:09.810Z,101190.44
2022-08-04T21:14:36.433Z,101208.69
2022-08-04T21:17:04.036Z,101210.41
2022-08-04T21:19:34.116Z,101210.94
2022-08-04T21:22:06.795Z,101215.75
2022-08-04T21:24:37.332Z,101220.47
2022-08-04T21:27:06.877Z,101222.78
2022-08-04T21:29:36.451Z,101217.31
2022-08-04T21:32:05.941Z,101220.97
2022-08-04T21:34:39.606Z,101220.25
2022-08-04T21:37:09.414Z,101219.09
2022-08-04T21:42:42.202Z,101228.75
2022-08-04T21:45:09.587Z,101234.09
2022-08-04T21:47:46.557Z,101241.09
2022-08-04T21:50:20.142Z,101252.06
2022-08-04T21:52:47.068Z,101244.72
2022-08-04T21:55:13.633Z,101236.88
2022-08-04T21:57:42.078Z,101241.59
2022-08-04T22:00:10.846Z,101238.75
2022-08-04T22:02:44.867Z,101235.66
2022-08-04T22:05:11.786Z,101234.38
2022-08-04T22:07:50.225Z,101239.75
2022-08-04T22:10:32.090Z,101236.63
2022-08-04T22:12:59.114Z,101240.75
2022-08-04T22:16:04.781Z,101236.72
2022-08-04T22:18:12.471Z,101232.72
2022-08-04T22:20:39.070Z,101230.72
2022-08-04T22:23:16.927Z,101236.91
2022-08-04T22:25:55.745Z,101235.19
2022-08-04T22:28:27.896Z,101235.41
2022-08-04T22:30:55.684Z,101238.56
2022-08-04T22:33:22.765Z,101243.88
2022-08-04T22:35:49.989Z,101235.22
2022-08-04T22:38:26.860Z,101235.50
2022-08-04T22:41:04.088Z,101238.06
2022-08-04T22:43:33.783Z,101241.22
2022-08-04T22:46:03.971Z,101238.72
2022-08-04T22:48:32.939Z,101238.78
2022-08-04T22:51:00.282Z,101237.78
2022-08-04T22:53:27.267Z,101239.88
2022-08-04T22:56:07.693Z,101243.66
2022-08-04T22:58:45.322Z,101247.34
2022-08-04T23:01:16.950Z,101242.84
2022-08-04T23:03:51.161Z,101237.00
2022-08-04T23:06:24.550Z,101247.59
2022-08-04T23:08:53.067Z,101246.41
2022-08-04T23:11:20.147Z,101242.59
2022-08-04T23:13:49.095Z,101243.22
2022-08-04T23:16:15.840Z,101249.69
2022-08-04T23:18:45.345Z,101248.78
2022-08-04T23:21:15.087Z,101248.72
2022-08-04T23:23:45.556Z,101248.53
2022-08-04T23:26:22.467Z,101251.88
2022-08-04T23:28:54.718Z,101250.75
2022-08-04T23:31:21.351Z,101258.06
2022-08-04T23:33:51.164Z,101254.53
2022-08-04T23:36:19.132Z,101252.72
2022-08-04T23:38:58.707Z,101259.19
2022-08-04T23:41:25.236Z,101258.78
2022-08-04T23:44:11.915Z,101259.66
2022-08-04T23:46:44.050Z,101264.72
2022-08-04T23:49:16.777Z,101270.34
2022-08-04T23:51:43.588Z,101264.25
2022-08-04T23:54:10.232Z,101262.19
2022-08-04T23:56:37.841Z,101265.09
2022-08-04T23:59:04.896Z,101260.94
